createdAt,value
2022-11-07T00:07:33.129Z,41.34
2022-11-07T00:15:17.362Z,41.29
2022-11-07T00:22:57.371Z,41.22
2022-11-07T00:30:40.004Z,41.38
2022-11-07T00:38:09.413Z,41.32
2022-11-07T00:45:51.926Z,41.4
2022-11-07T00:53:28.646Z,41.44
2022-11-07T01:01:16.159Z,41.37
2022-11-07T01:09:02.976Z,41.35
2022-11-07T01:16:38.687Z,41.35
2022-11-07T01:24:20.206Z,41.4
2022-11-07T01:32:15.982Z,41.44
2022-11-07T01:39:45.205Z,41.36
2022-11-07T01:47:35.780Z,41.35
2022-11-07T01:55:30.527Z,41.33
2022-11-07T02:03:39.234Z,41.28
2022-11-07T02:11:24.335Z,41.39
2022-11-07T02:19:15.101Z,41.39
2022-11-07T02:27:17.891Z,41.26
2022-11-07T02:35:05.533Z,41.3
2022-11-07T02:43:00.301Z,41.23
2022-11-07T02:50:43.130Z,41.34
2022-11-07T02:58:32.520Z,41.33
2022-11-07T03:06:25.599Z,41.32
2022-11-07T03:14:02.729Z,41.43
2022-11-07T03:21:42.780Z,41.36
2022-11-07T03:29:20.159Z,41.37
2022-11-07T03:36:51.898Z,41.4
2022-11-07T03:44:45.916Z,41.35
2022-11-07T03:52:23.010Z,41.35
2022-11-07T04:00:08.414Z,41.38
2022-11-07T04:07:49.475Z,41.35
2022-11-07T04:15:28.728Z,41.39
2022-11-07T04:23:17.417Z,41.35
2022-11-07T04:30:44.395Z,41.28
2022-11-07T04:38:12.425Z,41.32
2022-11-07T04:46:00.751Z,41.31
2022-11-07T04:53:34.118Z,41.33
2022-11-07T05:01:26.824Z,41.35
2022-11-07T05:08:58.649Z,41.41
2022-11-07T05:16:34.678Z,41.39
2022-11-07T05:24:14.892Z,41.39
2022-11-07T05:32:00.161Z,41.42
2022-11-07T05:39:57.712Z,41.3
2022-11-07T05:47:42.654Z,41.23
2022-11-07T05:55:19.668Z,40.96
2022-11-07T06:03:02.476Z,39.85
2022-11-07T06:10:36.180Z,39.4
2022-11-07T06:17:31.664Z,38.62
2022-11-07T06:24:08.832Z,38.04
2022-11-07T06:30:43.185Z,37.72
2022-11-07T06:37:19.281Z,37.58
2022-11-07T06:43:49.258Z,37.5
2022-11-07T06:50:25.685Z,37.37
2022-11-07T06:56:53.853Z,37.45
2022-11-07T07:03:19.798Z,37.42
2022-11-07T07:10:00.548Z,37.57
2022-11-07T07:17:07.353Z,37.94
2022-11-07T07:24:48.979Z,38.59
2022-11-07T07:32:32.574Z,38.73
2022-11-07T07:40:02.615Z,38.89
2022-11-07T07:47:37.716Z,39.02
2022-11-07T07:55:27.329Z,39.3
2022-11-07T08:03:07.200Z,39.68
2022-11-07T08:10:50.851Z,39.74
2022-11-07T08:18:18.435Z,40.02
2022-11-07T08:26:01.736Z,40.23
2022-11-07T08:33:43.234Z,40.29
2022-11-07T08:41:25.635Z,40.4
2022-11-07T08:49:02.254Z,40.45
2022-11-07T08:56:49.686Z,40.51
2022-11-07T09:04:25.746Z,40.54
2022-11-07T09:11:58.914Z,40.52
2022-11-07T09:19:41.877Z,40.55
2022-11-07T09:27:29.681Z,40.61
2022-11-07T09:35:14.926Z,40.55
2022-11-07T09:43:15.151Z,40.46
2022-11-07T09:51:16.483Z,40.31
2022-11-07T09:59:41.454Z,40.24
2022-11-07T10:07:49.256Z,40.33
2022-11-07T10:16:05.580Z,40.21
2022-11-07T10:24:21.936Z,40.38
2022-11-07T10:32:16.571Z,40.42
2022-11-07T10:40:24.460Z,40.46
2022-11-07T10:48:24.036Z,40.53
2022-11-07T10:56:20.408Z,40.39
2022-11-07T11:04:28.683Z,40.63
2022-11-07T11:12:50.396Z,40.67
2022-11-07T11:20:49.612Z,40.74
2022-11-07T11:29:00.601Z,40.64
2022-11-07T11:37:10.037Z,40.99
2022-11-07T11:45:18.041Z,41.14
2022-11-07T11:53:35.652Z,41.13
2022-11-07T12:01:34.201Z,41.26
2022-11-07T12:09:45.603Z,41.29
2022-11-07T12:18:11.343Z,41.39
2022-11-07T12:26:47.185Z,41.31
2022-11-07T12:34:50.869Z,41.32
2022-11-07T12:42:41.764Z,41.27
2022-11-07T12:50:46.679Z,41.36
2022-11-07T12:59:09.755Z,41.28
2022-11-07T13:07:16.625Z,41.33
2022-11-07T13:15:21.586Z,41.33
2022-11-07T13:23:23.106Z,41.73
2022-11-07T13:31:23.328Z,41.46
2022-11-07T13:39:10.647Z,41.44
2022-11-07T13:47:20.581Z,41.5
2022-11-07T13:55:40.092Z,41.64
2022-11-07T14:03:43.373Z,41.49
2022-11-07T14:11:36.626Z,41.51
2022-11-07T14:19:42.176Z,41.45
2022-11-07T14:27:27.385Z,41.48
2022-11-07T14:35:20.296Z,41.45
2022-11-07T14:43:06.991Z,41.37
2022-11-07T14:50:54.292Z,41.48
2022-11-07T14:59:00.122Z,41.4
2022-11-07T15:06:50.276Z,41.33
2022-11-07T15:15:00.124Z,41.52
2022-11-07T15:23:15.191Z,41.41
2022-11-07T15:31:04.774Z,41.54
2022-11-07T15:38:47.328Z,41.56
2022-11-07T15:46:32.697Z,41.74
2022-11-07T15:54:14.138Z,41.7
2022-11-07T16:01:52.979Z,41.61
2022-11-07T16:09:28.574Z,41.72
2022-11-07T16:17:18.081Z,41.71
2022-11-07T16:25:14.946Z,41.78
2022-11-07T16:33:13.566Z,41.68
2022-11-07T16:40:55.673Z,41.76
2022-11-07T16:49:03.096Z,41.7
2022-11-07T16:56:52.815Z,41.69
2022-11-07T17:04:52.164Z,41.71
2022-11-07T17:12:30.070Z,41.72
2022-11-07T17:19:58.981Z,41.8
2022-11-07T17:27:35.093Z,41.74
2022-11-07T17:35:31.983Z,41.77
2022-11-07T17:43:28.611Z,41.71
2022-11-07T17:51:05.917Z,41.79
2022-11-07T17:58:47.372Z,41.76
2022-11-07T18:06:34.191Z,41.74
2022-11-07T18:14:11.143Z,41.73
2022-11-07T18:22:05.961Z,41.77
2022-11-07T18:29:49.973Z,41.78
2022-11-07T18:37:30.588Z,41.81
2022-11-07T18:45:04.622Z,41.83
2022-11-07T18:52:38.265Z,41.8
2022-11-07T19:00:15.160Z,41.78
2022-11-07T19:07:59.627Z,41.87
2022-11-07T19:15:32.624Z,41.91
2022-11-07T19:23:15.993Z,41.9
2022-11-07T19:30:48.241Z,41.9
2022-11-07T19:38:22.550Z,41.91
2022-11-07T19:46:03.298Z,41.94
2022-11-07T19:53:38.045Z,41.91
2022-11-07T20:01:03.136Z,41.78
2022-11-07T20:08:39.625Z,41.95
2022-11-07T20:16:07.513Z,41.79
2022-11-07T20:23:36.245Z,41.9
2022-11-07T20:31:02.754Z,41.89
2022-11-07T20:38:35.448Z,41.73
2022-11-07T20:46:19.305Z,41.89
2022-11-07T20:53:51.625Z,41.84
2022-11-07T21:01:34.364Z,41.62
2022-11-07T21:09:24.570Z,41.48
2022-11-07T21:17:06.339Z,41.38
2022-11-07T21:24:33.070Z,41.35
2022-11-07T21:32:22.540Z,41.47
2022-11-07T21:40:02.365Z,41.46
2022-11-07T21:47:50.948Z,41.44
2022-11-07T21:55:27.051Z,41.52
2022-11-07T22:03:59.081Z,41.53
2022-11-07T22:11:23.249Z,41.48
2022-11-07T22:19:13.270Z,41.53
2022-11-07T22:26:55.791Z,41.56
2022-11-07T22:34:36.778Z,41.45
2022-11-07T22:42:23.871Z,41.55
2022-11-07T22:50:04.795Z,41.58
2022-11-07T22:57:46.872Z,41.5
2022-11-07T23:05:30.111Z,41.38
2022-11-07T23:13:17.966Z,41.43
2022-11-07T23:20:57.145Z,41.37
2022-11-07T23:28:51.680Z,41.28
2022-11-07T23:36:43.540Z,41.37
2022-11-07T23:44:29.269Z,41.55
2022-11-07T23:52:08.030Z,41.46
2022-11-07T23:59:35.389Z,41.42
